Time;durP1;ratioP1;P1;durP2;ratioP2;P2;SDS_P1;SDS_P2;PMS_P1;PMS_P2;Temp;Humidity;BMP_temperature;BMP_pressure;BME280_temperature;BME280_humidity;BME280_pressure;Samples;Min_cycle;Max_cycle;Signal;HPM_P1;HPM_P2
2021/04/09 00:00:03;;;;;;;14.20;11.90;;;0.90;99.90;;;;;;5012034;28;20491;-79
2021/04/09 00:02:38;;;;;;;13.23;11.97;;;1.00;99.90;;;;;;5018288;28;20459;-78
2021/04/09 00:05:07;;;;;;;12.30;11.10;;;0.90;99.90;;;;;;5020692;28;20440;-79
2021/04/09 00:07:33;;;;;;;14.07;12.60;;;0.80;99.90;;;;;;5016609;28;20455;-78
2021/04/09 00:10:00;;;;;;;15.70;13.40;;;0.80;99.90;;;;;;5016780;28;20518;-78
2021/04/09 00:12:26;;;;;;;14.53;13.03;;;0.80;99.90;;;;;;5019873;28;20558;-78
2021/04/09 00:14:53;;;;;;;14.83;13.10;;;0.70;99.90;;;;;;5023555;28;20436;-78
2021/04/09 00:17:19;;;;;;;14.40;12.90;;;0.70;99.90;;;;;;5016598;28;20935;-78
2021/04/09 00:19:45;;;;;;;15.40;13.17;;;0.60;99.90;;;;;;5009778;28;20477;-78
2021/04/09 00:22:12;;;;;;;13.97;12.13;;;0.60;99.90;;;;;;5059422;23;20510;-76
2021/04/09 00:24:38;;;;;;;14.73;12.73;;;0.60;99.90;;;;;;5041107;28;20447;-76
2021/04/09 00:27:06;;;;;;;15.83;12.23;;;0.60;99.90;;;;;;5042680;28;20459;-76
2021/04/09 00:29:32;;;;;;;14.00;12.10;;;0.60;99.90;;;;;;5040765;28;20518;-76
2021/04/09 00:31:59;;;;;;;13.10;11.70;;;0.50;99.90;;;;;;5048897;28;20516;-76
2021/04/09 00:34:25;;;;;;;14.50;12.20;;;0.50;99.90;;;;;;5045344;28;20445;-76
2021/04/09 00:36:51;;;;;;;13.83;12.17;;;0.50;99.90;;;;;;5047316;28;20451;-76
2021/04/09 00:39:18;;;;;;;13.20;11.90;;;0.50;99.90;;;;;;5049060;28;20984;-76
2021/04/09 00:41:44;;;;;;;13.47;12.07;;;0.40;99.90;;;;;;5045745;28;20521;-76
2021/04/09 00:44:12;;;;;;;14.77;11.87;;;0.40;99.90;;;;;;5045272;28;20439;-76
2021/04/09 00:46:39;;;;;;;12.83;11.20;;;0.40;99.90;;;;;;5042057;28;20448;-76
2021/04/09 00:49:07;;;;;;;12.97;11.70;;;0.40;99.90;;;;;;5038200;28;20443;-76
2021/04/09 00:51:35;;;;;;;14.73;12.80;;;0.30;99.90;;;;;;5044014;28;20509;-76
2021/04/09 00:54:02;;;;;;;13.90;11.97;;;0.30;99.90;;;;;;5037390;28;20454;-76
2021/04/09 00:56:30;;;;;;;12.10;11.07;;;0.40;99.90;;;;;;5045396;28;20452;-76
2021/04/09 00:58:58;;;;;;;17.87;11.83;;;0.40;99.90;;;;;;5042241;28;20430;-76
2021/04/09 01:01:26;;;;;;;14.43;12.07;;;0.40;99.90;;;;;;5055135;28;20454;-76
2021/04/09 01:03:54;;;;;;;13.30;11.40;;;0.30;99.90;;;;;;5043921;28;20498;-76
2021/04/09 01:06:22;;;;;;;15.10;12.93;;;0.30;99.90;;;;;;5045960;28;20455;-77
2021/04/09 01:08:49;;;;;;;13.23;11.87;;;0.30;99.90;;;;;;5036563;28;20862;-76
2021/04/09 01:11:15;;;;;;;14.27;12.77;;;0.30;99.90;;;;;;5040877;28;20486;-76
2021/04/09 01:13:43;;;;;;;14.57;13.07;;;0.20;99.90;;;;;;5038573;28;20439;-77
2021/04/09 01:16:14;;;;;;;13.17;11.97;;;0.20;99.90;;;;;;5048731;28;20447;-76
2021/04/09 01:18:49;;;;;;;12.83;11.53;;;0.20;99.90;;;;;;5052144;28;20450;-76
2021/04/09 01:21:24;;;;;;;13.20;11.97;;;0.20;99.90;;;;;;5052449;28;20461;-76
2021/04/09 01:23:58;;;;;;;14.57;12.50;;;0.30;99.90;;;;;;5059383;28;20429;-76
2021/04/09 01:26:55;;;;;;;13.37;11.20;;;0.30;99.90;;;;;;5052549;28;20505;-76
2021/04/09 01:29:56;;;;;;;13.33;12.07;;;0.30;99.90;;;;;;5055908;28;20447;-76
2021/04/09 01:32:24;;;;;;;13.47;12.20;;;0.30;99.90;;;;;;5048702;28;20486;-76
2021/04/09 01:34:53;;;;;;;13.03;11.83;;;0.30;99.90;;;;;;5051488;28;20443;-76
2021/04/09 01:37:22;;;;;;;13.00;11.80;;;0.30;99.90;;;;;;5049033;28;20463;-76
2021/04/09 01:39:54;;;;;;;16.23;12.53;;;0.30;99.90;;;;;;5044477;28;20434;-76
2021/04/09 01:42:23;;;;;;;14.30;12.37;;;0.30;99.90;;;;;;5044748;28;20456;-76
2021/04/09 01:44:53;;;;;;;13.03;11.73;;;0.40;99.90;;;;;;5053130;28;20476;-76
2021/04/09 01:47:23;;;;;;;14.30;12.10;;;0.40;99.90;;;;;;5052904;28;20439;-76
2021/04/09 01:49:53;;;;;;;14.60;11.87;;;0.50;99.90;;;;;;5057808;28;21016;-77
2021/04/09 01:52:20;;;;;;;13.60;12.30;;;0.50;99.90;;;;;;5050874;28;20478;-76
2021/04/09 01:54:48;;;;;;;13.03;11.73;;;0.60;99.90;;;;;;5053539;28;20444;-75
2021/04/09 01:57:15;;;;;;;12.80;11.50;;;0.60;99.90;;;;;;5049383;28;20434;-76
2021/04/09 01:59:42;;;;;;;12.60;11.30;;;0.60;99.90;;;;;;5041648;28;20431;-76
2021/04/09 02:02:09;;;;;;;13.17;11.73;;;0.50;99.90;;;;;;5037023;28;20466;-76
2021/04/09 02:04:38;;;;;;;12.53;11.33;;;0.50;99.90;;;;;;5040767;28;20431;-76
2021/04/09 02:07:05;;;;;;;12.43;11.27;;;0.40;99.90;;;;;;5035693;28;20439;-76
2021/04/09 02:09:32;;;;;;;14.73;12.70;;;0.40;99.90;;;;;;5040685;28;20472;-76
2021/04/09 02:12:00;;;;;;;14.63;13.03;;;0.40;99.90;;;;;;5042201;28;20474;-76
2021/04/09 02:14:28;;;;;;;14.40;12.93;;;0.40;99.90;;;;;;5041501;28;20441;-77
2021/04/09 02:16:56;;;;;;;14.67;12.90;;;0.40;99.90;;;;;;5032391;28;20454;-76
2021/04/09 02:19:24;;;;;;;13.67;12.27;;;0.40;99.90;;;;;;5037881;28;20427;-76
2021/04/09 02:21:52;;;;;;;14.23;12.80;;;0.30;99.90;;;;;;5045289;28;20457;-76
2021/04/09 02:24:18;;;;;;;13.83;12.50;;;0.30;99.90;;;;;;5039264;28;20962;-77
2021/04/09 02:26:45;;;;;;;15.70;12.47;;;0.30;99.90;;;;;;5039354;28;20448;-77
2021/04/09 02:29:11;;;;;;;13.70;12.50;;;0.30;99.90;;;;;;5035721;28;20438;-77
2021/04/09 02:31:39;;;;;;;13.57;12.20;;;0.30;99.90;;;;;;5032066;28;20482;-77
2021/04/09 02:34:05;;;;;;;15.10;12.37;;;0.40;99.90;;;;;;5034048;28;20458;-77
2021/04/09 02:36:32;;;;;;;13.87;12.50;;;0.40;99.90;;;;;;5032821;28;20794;-78
2021/04/09 02:39:05;;;;;;;15.40;12.37;;;0.40;99.90;;;;;;5044689;28;20434;-76
2021/04/09 02:41:36;;;;;;;14.03;12.73;;;0.30;99.90;;;;;;5046743;28;20990;-77
2021/04/09 02:44:03;;;;;;;14.20;12.40;;;0.30;99.90;;;;;;5043701;28;21017;-76
2021/04/09 02:46:37;;;;;;;14.07;12.67;;;0.20;99.90;;;;;;5037357;28;20442;-76
2021/04/09 02:49:10;;;;;;;13.90;12.60;;;0.10;99.90;;;;;;5045436;28;20446;-78
2021/04/09 02:51:37;;;;;;;13.57;12.27;;;0.10;99.90;;;;;;5033205;28;20506;-79
2021/04/09 02:54:08;;;;;;;14.57;13.07;;;0.10;99.90;;;;;;5028783;28;20435;-79
2021/04/09 02:56:37;;;;;;;14.20;12.80;;;0.00;99.90;;;;;;5024730;28;20444;-80
2021/04/09 02:59:03;;;;;;;16.50;13.30;;;-0.10;99.90;;;;;;5025770;28;20775;-80
2021/04/09 03:01:32;;;;;;;15.30;12.83;;;0.00;99.90;;;;;;5029129;28;20459;-80
2021/04/09 03:03:59;;;;;;;16.43;13.30;;;-0.10;99.90;;;;;;5027302;28;20450;-80
2021/04/09 03:06:26;;;;;;;13.83;12.53;;;-0.10;99.90;;;;;;5030615;28;20521;-80
2021/04/09 03:08:52;;;;;;;14.27;12.87;;;-0.10;99.90;;;;;;5027018;28;20451;-81
2021/04/09 03:11:22;;;;;;;15.77;12.87;;;-0.20;99.90;;;;;;5020212;28;20471;-79
2021/04/09 03:13:49;;;;;;;19.10;13.57;;;-0.20;99.90;;;;;;5035980;28;20438;-77
2021/04/09 03:16:18;;;;;;;15.37;13.83;;;-0.10;99.90;;;;;;5042717;28;20434;-78
2021/04/09 03:18:45;;;;;;;19.40;14.93;;;-0.10;99.90;;;;;;5039228;28;20439;-77
2021/04/09 03:21:11;;;;;;;17.57;14.60;;;-0.20;99.90;;;;;;5035479;28;20478;-77
2021/04/09 03:23:38;;;;;;;17.77;14.40;;;-0.10;99.90;;;;;;5037325;28;20433;-77
2021/04/09 03:26:04;;;;;;;19.20;15.33;;;-0.10;99.90;;;;;;5041495;28;20441;-76
2021/04/09 03:28:31;;;;;;;19.17;15.60;;;-0.10;99.90;;;;;;5031215;28;20455;-75
2021/04/09 03:30:58;;;;;;;18.60;15.57;;;-0.10;99.90;;;;;;5031099;28;20467;-75
2021/04/09 03:33:24;;;;;;;18.30;14.60;;;-0.10;99.90;;;;;;5017234;28;21011;-77
2021/04/09 03:35:51;;;;;;;18.37;14.77;;;-0.10;99.90;;;;;;5042955;28;20435;-78
2021/04/09 03:38:18;;;;;;;19.50;14.87;;;-0.10;99.90;;;;;;5038362;28;20438;-76
2021/04/09 03:40:45;;;;;;;16.00;14.13;;;-0.10;99.90;;;;;;5043457;28;20466;-77
2021/04/09 03:43:13;;;;;;;16.17;13.83;;;-0.10;99.90;;;;;;5056094;28;20438;-77
2021/04/09 03:45:42;;;;;;;16.90;14.10;;;-0.10;99.90;;;;;;5044454;28;20453;-77
2021/04/09 03:48:09;;;;;;;15.30;13.63;;;-0.10;99.90;;;;;;5027470;28;20463;-78
2021/04/09 03:50:36;;;;;;;20.13;14.77;;;-0.10;99.90;;;;;;5033223;28;20472;-78
2021/04/09 03:53:04;;;;;;;17.50;13.97;;;-0.10;99.90;;;;;;5036716;28;20507;-76
2021/04/09 03:55:30;;;;;;;14.70;13.17;;;-0.10;99.90;;;;;;5036591;28;20994;-76
2021/04/09 03:57:56;;;;;;;14.63;13.13;;;-0.10;99.90;;;;;;5033280;28;20526;-77
2021/04/09 04:00:24;;;;;;;14.80;13.27;;;0.00;99.90;;;;;;5031694;28;20454;-78
2021/04/09 04:02:52;;;;;;;14.57;12.27;;;0.10;99.90;;;;;;5040092;28;20457;-78
2021/04/09 04:05:18;;;;;;;16.67;12.90;;;0.10;99.90;;;;;;5040067;28;20815;-78
2021/04/09 04:07:45;;;;;;;13.77;11.77;;;0.20;99.90;;;;;;5035011;28;20810;-78
2021/04/09 04:10:13;;;;;;;13.57;12.17;;;0.20;99.90;;;;;;5045255;28;20800;-78
2021/04/09 04:12:39;;;;;;;13.13;11.83;;;0.30;99.90;;;;;;5045466;28;21029;-78
2021/04/09 04:15:06;;;;;;;13.33;12.00;;;0.30;99.90;;;;;;5047741;28;20439;-78
2021/04/09 04:17:33;;;;;;;13.77;12.43;;;0.30;99.90;;;;;;5042946;28;20513;-78
2021/04/09 04:20:00;;;;;;;13.07;11.70;;;0.20;99.90;;;;;;5038277;28;20443;-78
2021/04/09 04:22:27;;;;;;;17.00;13.17;;;0.20;99.90;;;;;;5036768;28;20562;-78
2021/04/09 04:24:53;;;;;;;13.53;12.13;;;0.20;99.90;;;;;;5021952;28;20838;-78
2021/04/09 04:27:20;;;;;;;15.43;11.90;;;0.20;99.90;;;;;;5041772;28;20453;-78
2021/04/09 04:29:47;;;;;;;13.73;11.93;;;0.20;99.90;;;;;;5035742;28;20450;-77
2021/04/09 04:32:13;;;;;;;13.50;12.10;;;0.20;99.90;;;;;;5039315;28;20458;-78
2021/04/09 04:34:39;;;;;;;14.70;12.87;;;0.20;99.90;;;;;;5040416;28;20443;-78
2021/04/09 04:37:07;;;;;;;17.03;12.17;;;0.10;99.90;;;;;;5039036;28;20431;-78
2021/04/09 04:39:33;;;;;;;13.30;11.97;;;0.20;99.90;;;;;;5037374;28;20500;-78
2021/04/09 04:41:59;;;;;;;12.90;11.50;;;0.10;99.90;;;;;;5030632;28;20461;-78
2021/04/09 04:44:26;;;;;;;13.20;11.70;;;0.10;99.90;;;;;;5030356;28;20451;-78
2021/04/09 04:46:52;;;;;;;13.73;12.33;;;0.10;99.90;;;;;;5039476;28;20494;-78
2021/04/09 04:49:18;;;;;;;13.57;12.17;;;0.10;99.90;;;;;;5033761;28;20501;-78
2021/04/09 04:51:45;;;;;;;13.53;12.13;;;0.20;99.90;;;;;;5042980;28;20846;-78
2021/04/09 04:54:12;;;;;;;16.47;12.20;;;0.20;99.90;;;;;;5038548;28;20441;-78
2021/04/09 04:56:38;;;;;;;14.27;12.77;;;0.20;99.90;;;;;;5040624;28;20472;-78
2021/04/09 04:59:04;;;;;;;16.93;12.47;;;0.20;99.90;;;;;;5035422;28;20454;-78
2021/04/09 05:01:31;;;;;;;13.80;12.50;;;0.30;99.90;;;;;;5044175;28;20914;-78
2021/04/09 05:03:57;;;;;;;13.43;12.13;;;0.30;99.90;;;;;;5036114;28;20430;-78
2021/04/09 05:06:23;;;;;;;13.70;12.37;;;0.30;99.90;;;;;;5040588;28;20464;-78
2021/04/09 05:08:50;;;;;;;14.03;12.53;;;0.40;99.90;;;;;;5037485;28;20449;-78
2021/04/09 05:11:17;;;;;;;14.83;13.23;;;0.40;99.90;;;;;;5040717;28;20461;-78
2021/04/09 05:13:44;;;;;;;15.70;13.20;;;0.60;99.90;;;;;;5032228;28;20447;-79
2021/04/09 05:16:11;;;;;;;14.30;11.47;;;0.70;99.90;;;;;;5035758;28;20454;-77
2021/04/09 05:18:37;;;;;;;14.03;12.70;;;0.80;99.90;;;;;;5046256;28;20450;-78
2021/04/09 05:21:05;;;;;;;13.67;12.27;;;0.80;99.90;;;;;;5034080;28;21026;-79
2021/04/09 05:23:32;;;;;;;13.20;11.70;;;0.90;99.90;;;;;;5038964;28;20446;-79
2021/04/09 05:25:58;;;;;;;13.13;11.83;;;0.90;99.90;;;;;;5040338;28;20460;-78
2021/04/09 05:28:25;;;;;;;12.40;11.20;;;1.00;99.90;;;;;;5041956;28;20437;-78
2021/04/09 05:30:52;;;;;;;14.37;12.00;;;1.10;99.90;;;;;;5039029;28;20468;-78
2021/04/09 05:33:18;;;;;;;13.33;12.13;;;1.20;99.90;;;;;;5043771;28;20577;-78
2021/04/09 05:35:46;;;;;;;13.27;11.87;;;1.30;99.90;;;;;;5032289;28;20489;-78
2021/04/09 05:38:12;;;;;;;13.03;11.73;;;1.50;99.90;;;;;;5035697;28;20481;-78
2021/04/09 05:40:38;;;;;;;12.83;11.53;;;1.70;99.90;;;;;;5038291;28;20463;-78
2021/04/09 05:43:07;;;;;;;13.10;11.80;;;1.90;99.90;;;;;;5035662;28;20440;-78
2021/04/09 05:45:34;;;;;;;15.20;12.97;;;2.10;99.90;;;;;;5038127;28;20880;-77
2021/04/09 05:48:04;;;;;;;13.93;12.37;;;2.30;99.90;;;;;;5039989;28;21070;-78
2021/04/09 05:50:31;;;;;;;13.57;12.17;;;2.60;99.90;;;;;;5041958;28;20479;-78
2021/04/09 05:52:58;;;;;;;13.13;11.83;;;3.00;99.90;;;;;;5040292;28;20482;-79
2021/04/09 05:55:24;;;;;;;13.50;12.10;;;3.30;99.90;;;;;;5038496;28;20450;-78
2021/04/09 05:57:50;;;;;;;18.47;10.53;;;3.50;99.90;;;;;;5038050;28;20858;-78
2021/04/09 06:00:18;;;;;;;11.17;10.10;;;3.70;99.90;;;;;;5035066;28;20683;-78
2021/04/09 06:02:45;;;;;;;10.33;9.27;;;3.70;99.90;;;;;;5041776;28;20446;-78
2021/04/09 06:05:12;;;;;;;13.43;12.03;;;3.90;99.90;;;;;;5039212;28;20446;-78
2021/04/09 06:07:39;;;;;;;8.90;7.23;;;4.00;99.90;;;;;;5045711;28;20972;-79
2021/04/09 06:10:07;;;;;;;12.93;7.40;;;4.00;99.90;;;;;;5040706;28;20978;-78
2021/04/09 06:12:33;;;;;;;10.63;6.73;;;4.10;99.90;;;;;;5044531;28;20500;-78
2021/04/09 06:15:00;;;;;;;9.50;6.57;;;4.10;99.90;;;;;;5038985;28;20472;-79
2021/04/09 06:17:26;;;;;;;12.07;9.03;;;4.30;99.90;;;;;;5034485;28;20461;-78
2021/04/09 06:19:53;;;;;;;14.70;7.87;;;4.40;99.90;;;;;;5047651;28;20441;-79
2021/04/09 06:22:20;;;;;;;10.47;6.90;;;4.50;99.90;;;;;;5041275;28;20474;-78
2021/04/09 06:24:46;;;;;;;9.57;6.93;;;4.60;99.90;;;;;;5040766;28;20827;-78
2021/04/09 06:27:12;;;;;;;10.60;7.40;;;4.50;99.90;;;;;;5036718;28;20484;-78
2021/04/09 06:29:39;;;;;;;12.40;11.10;;;4.60;99.90;;;;;;5040754;28;20832;-78
2021/04/09 06:32:06;;;;;;;12.60;11.30;;;4.70;99.90;;;;;;5043476;28;20466;-78
2021/04/09 06:34:32;;;;;;;11.80;10.60;;;4.90;99.90;;;;;;5042271;28;20197;-78
2021/04/09 06:36:59;;;;;;;12.60;11.40;;;5.00;99.90;;;;;;5046873;28;20453;-78
2021/04/09 06:39:26;;;;;;;13.13;11.67;;;5.30;99.90;;;;;;5032287;28;20196;-78
2021/04/09 06:41:52;;;;;;;12.47;11.27;;;5.50;99.90;;;;;;5047368;28;20223;-78
2021/04/09 06:44:19;;;;;;;13.50;12.07;;;5.70;99.90;;;;;;5042160;28;20204;-78
2021/04/09 06:46:46;;;;;;;12.87;11.03;;;5.70;99.90;;;;;;5036074;28;20204;-78
2021/04/09 06:49:12;;;;;;;12.10;7.90;;;5.90;99.90;;;;;;5035437;28;20189;-77
2021/04/09 06:51:39;;;;;;;11.17;8.17;;;5.90;99.90;;;;;;5042848;28;20272;-78
2021/04/09 06:54:11;;;;;;;11.37;8.27;;;6.00;99.90;;;;;;5040588;28;20625;-78
2021/04/09 06:56:38;;;;;;;12.73;11.40;;;6.10;99.90;;;;;;5043035;28;20254;-79
2021/04/09 06:59:05;;;;;;;14.00;12.13;;;6.30;99.90;;;;;;5039595;28;20672;-79
2021/04/09 07:01:32;;;;;;;14.70;11.67;;;6.60;99.90;;;;;;5041172;28;20234;-79
2021/04/09 07:03:58;;;;;;;15.90;12.47;;;6.80;99.90;;;;;;5040595;28;20581;-79
2021/04/09 07:06:29;;;;;;;13.20;11.73;;;7.00;99.90;;;;;;5032407;28;20704;-79
2021/04/09 07:08:55;;;;;;;12.77;11.47;;;7.20;99.90;;;;;;5041891;28;20201;-79
2021/04/09 07:11:23;;;;;;;13.03;11.33;;;7.40;99.90;;;;;;5046486;28;20697;-79
2021/04/09 07:13:50;;;;;;;11.43;10.37;;;7.80;99.90;;;;;;5045120;28;20216;-79
2021/04/09 07:16:17;;;;;;;12.17;10.97;;;8.00;99.90;;;;;;5039008;28;20207;-79
2021/04/09 07:18:49;;;;;;;11.37;10.07;;;8.40;99.90;;;;;;5037154;28;20207;-79
2021/04/09 07:21:27;;;;;;;11.87;10.70;;;8.60;99.90;;;;;;5024417;28;20239;-78
2021/04/09 07:24:19;;;;;;;11.17;10.17;;;8.80;99.90;;;;;;5032911;28;20206;-79
2021/04/09 07:26:48;;;;;;;12.50;11.30;;;9.00;99.90;;;;;;5028727;28;20212;-79
2021/04/09 07:29:37;;;;;;;12.93;11.67;;;9.10;99.90;;;;;;5034912;28;20211;-79
2021/04/09 07:32:25;;;;;;;12.47;11.17;;;9.50;99.90;;;;;;5037247;28;20729;-79
2021/04/09 07:34:54;;;;;;;12.20;11.00;;;10.00;99.90;;;;;;5047483;28;20673;-79
2021/04/09 07:37:21;;;;;;;12.33;11.07;;;10.40;99.90;;;;;;5039240;28;20198;-79
2021/04/09 07:39:53;;;;;;;12.23;10.97;;;10.50;99.90;;;;;;5044773;28;20211;-79
2021/04/09 07:42:28;;;;;;;10.90;9.87;;;10.50;99.90;;;;;;5026122;28;20209;-79
2021/04/09 07:44:58;;;;;;;10.87;9.87;;;10.60;99.90;;;;;;5026144;28;20187;-79
2021/04/09 07:47:25;;;;;;;13.07;10.47;;;11.00;99.90;;;;;;5032960;28;20197;-79
2021/04/09 07:49:59;;;;;;;11.70;10.50;;;11.30;99.90;;;;;;5030140;28;20196;-79
2021/04/09 07:52:26;;;;;;;11.37;10.20;;;11.50;99.90;;;;;;5038640;28;20668;-79
2021/04/09 07:54:53;;;;;;;11.10;10.10;;;11.50;99.90;;;;;;5047668;28;20191;-79
2021/04/09 07:57:29;;;;;;;11.50;10.30;;;11.60;99.90;;;;;;5053269;28;20207;-79
2021/04/09 07:59:55;;;;;;;11.77;10.57;;;11.60;99.90;;;;;;5027359;28;20224;-79
2021/04/09 08:02:39;;;;;;;11.33;10.20;;;11.80;99.90;;;;;;5043513;28;20264;-79
2021/04/09 08:05:06;;;;;;;10.83;9.73;;;12.00;99.90;;;;;;5037945;28;20193;-79
2021/04/09 08:07:34;;;;;;;10.63;9.53;;;12.20;99.90;;;;;;5043542;28;20258;-79
2021/04/09 08:10:00;;;;;;;9.77;8.87;;;12.40;99.90;;;;;;5039921;28;20256;-79
2021/04/09 08:12:28;;;;;;;9.87;8.83;;;12.60;99.90;;;;;;5036590;28;20213;-79
2021/04/09 08:14:55;;;;;;;11.23;9.63;;;12.60;99.90;;;;;;5036263;28;20256;-79
2021/04/09 08:17:23;;;;;;;10.03;9.03;;;12.40;99.90;;;;;;5038150;28;20188;-79
2021/04/09 08:19:53;;;;;;;10.93;9.83;;;12.50;99.90;;;;;;5039808;28;20198;-79
2021/04/09 08:22:22;;;;;;;10.70;9.60;;;12.30;99.90;;;;;;5035659;28;20709;-79
2021/04/09 08:24:49;;;;;;;10.10;9.17;;;12.20;99.90;;;;;;5039027;28;20202;-80
2021/04/09 08:27:16;;;;;;;9.87;8.30;;;12.30;99.70;;;;;;5036492;28;20206;-79
2021/04/09 08:29:44;;;;;;;9.77;8.80;;;12.30;99.40;;;;;;5044452;28;20205;-80
2021/04/09 08:32:11;;;;;;;9.13;8.23;;;12.20;99.90;;;;;;5050200;28;20220;-79
2021/04/09 08:34:38;;;;;;;9.53;8.63;;;12.30;99.70;;;;;;5044266;28;20579;-80
2021/04/09 08:37:05;;;;;;;9.70;8.73;;;12.20;99.60;;;;;;5043102;28;20681;-80
2021/04/09 08:39:32;;;;;;;9.63;8.60;;;12.10;99.60;;;;;;5043992;28;20205;-80
2021/04/09 08:41:59;;;;;;;9.40;8.43;;;12.10;99.20;;;;;;5043331;28;20208;-80
2021/04/09 08:44:26;;;;;;;9.77;8.87;;;12.10;99.50;;;;;;5037507;28;20206;-80
2021/04/09 08:46:54;;;;;;;9.23;8.43;;;12.20;99.50;;;;;;5043395;28;20562;-80
2021/04/09 08:49:22;;;;;;;9.20;8.30;;;12.10;98.50;;;;;;5042160;28;20206;-79
2021/04/09 08:51:50;;;;;;;9.57;8.67;;;12.10;98.60;;;;;;5045693;28;20230;-80
2021/04/09 08:54:19;;;;;;;9.60;8.60;;;12.20;99.60;;;;;;5035606;28;20209;-79
2021/04/09 08:56:46;;;;;;;10.03;8.57;;;12.10;99.50;;;;;;5041551;28;20207;-80
2021/04/09 08:59:12;;;;;;;9.83;8.83;;;12.20;99.20;;;;;;5026458;28;20207;-79
2021/04/09 09:01:39;;;;;;;9.07;8.27;;;12.20;99.30;;;;;;5047060;28;20225;-79
2021/04/09 09:04:34;;;;;;;9.80;8.40;;;12.30;98.90;;;;;;5021850;28;20234;-79
2021/04/09 09:07:01;;;;;;;10.47;9.47;;;12.50;98.80;;;;;;5038299;28;20224;-79
2021/04/09 09:09:28;;;;;;;10.17;9.13;;;12.40;98.10;;;;;;5039748;28;20197;-79
2021/04/09 09:11:55;;;;;;;10.10;9.10;;;12.40;98.30;;;;;;5045132;28;20435;-80
2021/04/09 09:14:43;;;;;;;10.00;9.17;;;12.40;98.00;;;;;;5042690;28;20466;-79
2021/04/09 09:17:38;;;;;;;10.60;9.53;;;12.40;98.50;;;;;;5038013;28;20654;-80
2021/04/09 09:20:12;;;;;;;10.83;9.77;;;12.40;98.50;;;;;;5025915;28;20197;-80
2021/04/09 09:22:45;;;;;;;9.37;8.47;;;12.50;98.20;;;;;;5038667;28;20209;-78
2021/04/09 09:25:11;;;;;;;10.20;9.40;;;13.00;98.20;;;;;;5036203;28;20199;-80
2021/04/09 09:27:45;;;;;;;9.67;8.77;;;13.20;97.80;;;;;;5032460;28;20203;-79
2021/04/09 09:30:36;;;;;;;9.80;8.90;;;13.10;96.80;;;;;;5040246;28;20255;-81
2021/04/09 09:33:19;;;;;;;10.20;9.20;;;13.20;97.30;;;;;;5038564;28;20323;-80
2021/04/09 09:36:04;;;;;;;10.27;9.23;;;13.00;97.30;;;;;;5040598;28;20216;-79
2021/04/09 09:38:54;;;;;;;8.90;8.20;;;13.30;97.40;;;;;;5050119;28;20229;-79
2021/04/09 09:41:48;;;;;;;9.37;8.47;;;13.40;96.10;;;;;;5042629;28;20815;-80
2021/04/09 09:44:27;;;;;;;8.80;7.90;;;13.50;96.90;;;;;;5038786;28;20188;-79
2021/04/09 09:46:54;;;;;;;9.73;8.73;;;13.70;96.80;;;;;;5037942;28;20660;-80
2021/04/09 09:49:21;;;;;;;10.00;8.33;;;13.80;96.30;;;;;;5043974;28;20202;-79
2021/04/09 09:51:48;;;;;;;8.70;7.90;;;13.90;96.30;;;;;;5042221;28;20313;-80
2021/04/09 09:54:21;;;;;;;9.63;8.77;;;13.90;96.10;;;;;;5042463;28;20191;-80
2021/04/09 09:56:47;;;;;;;9.50;8.53;;;14.00;96.30;;;;;;5048344;28;20191;-79
2021/04/09 09:59:17;;;;;;;9.17;8.10;;;14.00;95.90;;;;;;5045003;28;20430;-80
2021/04/09 10:01:51;;;;;;;9.80;8.87;;;14.10;95.70;;;;;;5036944;28;20220;-78
2021/04/09 10:04:18;;;;;;;9.27;8.40;;;14.30;94.80;;;;;;5040112;28;20310;-80
2021/04/09 10:06:50;;;;;;;9.20;8.30;;;14.30;94.70;;;;;;5042830;28;20200;-78
2021/04/09 10:09:24;;;;;;;7.87;7.17;;;14.20;94.70;;;;;;5028735;28;20191;-80
2021/04/09 10:11:51;;;;;;;8.50;7.80;;;14.20;95.20;;;;;;5050060;28;20207;-80
2021/04/09 10:14:18;;;;;;;8.63;7.83;;;14.40;94.90;;;;;;5046324;28;20199;-79
2021/04/09 10:16:45;;;;;;;8.93;8.13;;;14.50;94.80;;;;;;5045440;28;20199;-80
2021/04/09 10:19:11;;;;;;;8.90;8.10;;;14.60;94.90;;;;;;5049645;28;20198;-79
2021/04/09 10:21:39;;;;;;;8.23;7.37;;;14.70;94.50;;;;;;5046317;28;20285;-79
2021/04/09 10:24:07;;;;;;;8.37;7.67;;;14.80;94.50;;;;;;5043889;28;20200;-79
2021/04/09 10:26:35;;;;;;;8.60;7.70;;;14.80;94.60;;;;;;5048055;28;20200;-79
2021/04/09 10:29:02;;;;;;;9.30;8.43;;;14.80;94.30;;;;;;5046973;28;20204;-79
2021/04/09 10:31:28;;;;;;;8.17;7.33;;;14.90;93.90;;;;;;5022481;28;20279;-79
2021/04/09 10:33:56;;;;;;;8.30;7.50;;;15.00;93.70;;;;;;5040395;28;20220;-79
2021/04/09 10:36:25;;;;;;;7.70;7.03;;;15.10;93.40;;;;;;5049740;28;20203;-79
2021/04/09 10:38:53;;;;;;;8.80;8.00;;;15.20;93.70;;;;;;5041013;28;20195;-79
2021/04/09 10:41:24;;;;;;;9.17;7.73;;;15.20;93.80;;;;;;5046687;28;20211;-79
2021/04/09 10:43:58;;;;;;;8.43;7.73;;;15.20;93.10;;;;;;5044896;28;20196;-79
2021/04/09 10:46:26;;;;;;;9.00;8.07;;;15.30;93.10;;;;;;5041675;28;20203;-79
2021/04/09 10:48:58;;;;;;;8.63;7.93;;;15.30;93.40;;;;;;5047372;28;20199;-79
2021/04/09 10:51:28;;;;;;;9.03;8.10;;;15.50;93.30;;;;;;5049397;28;20572;-79
2021/04/09 10:53:55;;;;;;;8.73;7.93;;;15.60;92.50;;;;;;5046726;28;20227;-80
2021/04/09 10:56:21;;;;;;;8.70;7.90;;;15.70;92.00;;;;;;5023475;28;20195;-79
2021/04/09 10:58:48;;;;;;;8.10;7.40;;;15.70;91.10;;;;;;5039086;28;20213;-80
2021/04/09 11:01:16;;;;;;;8.33;7.67;;;15.80;88.20;;;;;;5048509;28;20240;-80
2021/04/09 11:03:43;;;;;;;7.17;6.67;;;15.90;87.10;;;;;;5042153;28;20188;-79
2021/04/09 11:06:10;;;;;;;7.30;6.80;;;16.10;87.10;;;;;;5045039;28;20218;-79
2021/04/09 11:08:39;;;;;;;7.60;6.90;;;16.10;87.60;;;;;;5046735;28;20652;-80
2021/04/09 11:11:07;;;;;;;7.63;6.93;;;16.30;86.60;;;;;;5043086;28;20226;-80
2021/04/09 11:13:36;;;;;;;7.63;6.93;;;16.50;86.30;;;;;;5041371;28;20241;-79
2021/04/09 11:16:03;;;;;;;7.60;7.00;;;16.50;86.50;;;;;;5049058;28;20205;-79
2021/04/09 11:18:50;;;;;;;7.30;6.80;;;16.60;87.30;;;;;;5036008;28;20219;-79
2021/04/09 11:21:32;;;;;;;8.13;7.33;;;16.80;85.80;;;;;;5046828;28;20252;-80
2021/04/09 11:23:59;;;;;;;8.83;7.53;;;16.90;84.60;;;;;;5050018;28;20201;-80
2021/04/09 11:26:28;;;;;;;7.70;7.00;;;16.90;81.00;;;;;;5042268;28;20207;-80
2021/04/09 11:28:55;;;;;;;6.93;6.30;;;17.00;77.40;;;;;;5029138;28;20275;-80
2021/04/09 11:31:22;;;;;;;6.77;6.27;;;16.90;78.60;;;;;;5047167;28;20213;-80
2021/04/09 11:34:03;;;;;;;6.67;6.20;;;17.10;76.50;;;;;;5041089;28;20225;-80
2021/04/09 11:36:29;;;;;;;7.33;6.73;;;17.10;75.20;;;;;;5038592;28;20221;-79
2021/04/09 11:39:06;;;;;;;7.23;6.47;;;17.10;74.50;;;;;;5043148;28;20705;-80
2021/04/09 11:41:33;;;;;;;7.67;6.70;;;17.10;74.20;;;;;;5047692;28;20226;-80
2021/04/09 11:44:01;;;;;;;7.57;6.97;;;17.20;73.90;;;;;;5031557;28;20204;-78
2021/04/09 11:46:37;;;;;;;7.20;6.53;;;17.20;72.50;;;;;;5036876;28;20204;-78
2021/04/09 11:49:07;;;;;;;7.30;6.60;;;17.30;73.50;;;;;;5042308;28;20293;-78
2021/04/09 11:51:34;;;;;;;7.20;6.70;;;17.40;73.50;;;;;;5042999;28;20221;-78
2021/04/09 11:54:02;;;;;;;7.33;6.73;;;17.40;73.00;;;;;;5045130;28;20302;-80
2021/04/09 11:56:42;;;;;;;7.03;6.53;;;17.40;72.70;;;;;;5039933;28;20201;-80
2021/04/09 11:59:10;;;;;;;7.07;6.43;;;17.50;73.20;;;;;;5034771;28;20203;-80
2021/04/09 12:01:37;;;;;;;7.07;6.37;;;17.50;71.50;;;;;;5044544;28;20246;-78
2021/04/09 12:04:04;;;;;;;7.17;6.67;;;17.40;70.00;;;;;;5044742;28;20220;-79
2021/04/09 12:06:36;;;;;;;7.60;6.90;;;17.40;70.70;;;;;;5039263;28;20199;-80
2021/04/09 12:09:03;;;;;;;6.97;6.37;;;17.30;72.90;;;;;;5044227;28;20201;-79
2021/04/09 12:11:29;;;;;;;7.10;6.50;;;17.30;69.00;;;;;;5041030;28;20232;-79
2021/04/09 12:13:56;;;;;;;7.80;7.10;;;17.30;70.90;;;;;;5039301;28;20244;-79
2021/04/09 12:16:22;;;;;;;7.60;7.00;;;17.40;71.40;;;;;;5024591;28;20199;-79
2021/04/09 12:18:48;;;;;;;6.97;6.47;;;17.40;70.80;;;;;;5038328;28;20229;-79
2021/04/09 12:21:16;;;;;;;7.30;6.70;;;17.40;70.30;;;;;;5043756;28;20324;-79
2021/04/09 12:23:43;;;;;;;7.40;6.80;;;17.50;68.60;;;;;;5044774;28;20197;-79
2021/04/09 12:26:09;;;;;;;6.80;6.20;;;17.30;68.30;;;;;;5038896;28;20251;-78
2021/04/09 12:28:38;;;;;;;6.77;6.27;;;17.40;68.90;;;;;;5042920;28;20200;-78
2021/04/09 12:31:04;;;;;;;8.47;6.60;;;17.60;70.40;;;;;;5020454;28;20715;-79
2021/04/09 12:33:30;;;;;;;7.20;6.60;;;17.70;68.90;;;;;;5023127;28;20227;-79
2021/04/09 12:35:57;;;;;;;7.23;6.63;;;17.70;68.80;;;;;;5047129;28;20991;-79
2021/04/09 12:38:24;;;;;;;7.03;6.53;;;17.80;68.30;;;;;;5041654;28;20201;-79
2021/04/09 12:40:50;;;;;;;5.33;4.93;;;18.00;66.70;;;;;;5042578;28;20213;-79
2021/04/09 12:43:16;;;;;;;6.77;4.10;;;18.00;65.40;;;;;;5039908;28;20191;-80
2021/04/09 12:45:43;;;;;;;4.93;4.47;;;18.00;64.90;;;;;;5037855;28;20245;-78